Time;durP1;ratioP1;P1;durP2;ratioP2;P2;SDS_P1;SDS_P2;PMS_P1;PMS_P2;Temp;Humidity;BMP_temperature;BMP_pressure;BME280_temperature;BME280_humidity;BME280_pressure;Samples;Min_cycle;Max_cycle;Signal;HPM_P1;HPM_P2
2024/01/27 00:02:35;;;;;;;;;2.50;2.00;;;;;10.24;100.00;98937.38;6126362;28;97302;-55
2024/01/27 00:05:39;;;;;;;;;3.60;3.60;;;;;10.21;100.00;98935.13;6143652;28;96979;-53
2024/01/27 00:08:43;;;;;;;;;3.00;2.40;;;;;10.15;100.00;98960.19;6132590;28;96546;-53
2024/01/27 00:11:46;;;;;;;;;3.00;3.00;;;;;10.18;100.00;98972.44;6131565;28;96343;-54
2024/01/27 00:14:50;;;;;;;;;3.80;3.20;;;;;10.16;100.00;98996.91;6132207;28;96624;-54
2024/01/27 00:17:53;;;;;;;;;3.00;2.25;;;;;9.83;100.00;99009.66;6130804;28;96445;-54
2024/01/27 00:21:21;;;;;;;;;4.40;4.40;;;;;9.79;100.00;99035.38;6129036;28;96363;-55
2024/01/27 00:24:26;;;;;;;;;2.00;2.00;;;;;9.77;100.00;99049.06;6131464;28;96291;-55
2024/01/27 00:27:30;;;;;;;;;4.00;4.00;;;;;9.74;100.00;99029.78;6132884;28;96842;-53
2024/01/27 00:30:33;;;;;;;;;3.00;3.00;;;;;9.75;100.00;99053.00;6131295;28;96854;-53
2024/01/27 00:33:38;;;;;;;;;1.00;1.00;;;;;9.64;100.00;99065.25;6135816;28;96796;-54
2024/01/27 00:36:48;;;;;;;;;4.00;4.00;;;;;9.66;100.00;99067.72;6135596;28;96231;-54
2024/01/27 00:39:53;;;;;;;;;3.00;2.00;;;;;9.71;100.00;99068.75;6135463;28;96280;-53
2024/01/27 00:42:56;;;;;;;;;1.00;1.00;;;;;9.58;100.00;99058.00;6145954;28;96838;-53
2024/01/27 00:45:59;;;;;;;;;3.00;2.00;;;;;9.55;100.00;99061.97;6131896;28;97588;-54
2024/01/27 00:49:02;;;;;;;;;3.00;3.00;;;;;9.54;100.00;99081.84;6134656;28;96273;-53
2024/01/27 00:52:06;;;;;;;;;2.40;2.40;;;;;9.47;100.00;99094.50;6135769;28;97113;-53
2024/01/27 00:55:11;;;;;;;;;2.00;2.00;;;;;9.52;100.00;99108.16;6133418;28;97324;-53
2024/01/27 00:58:14;;;;;;;;;4.00;4.00;;;;;9.56;100.00;99109.38;6135721;28;96884;-53
2024/01/27 01:01:17;;;;;;;;;2.80;2.80;;;;;9.54;100.00;99114.13;6134788;28;97615;-53
2024/01/27 01:04:20;;;;;;;;;2.00;2.00;;;;;9.65;100.00;99125.28;6149060;28;97998;-55
2024/01/27 01:07:23;;;;;;;;;3.00;3.00;;;;;9.55;100.00;99121.16;6135684;28;96277;-54
2024/01/27 01:10:28;;;;;;;;;4.00;3.60;;;;;9.52;100.00;99118.06;6133761;28;96395;-54
2024/01/27 01:13:31;;;;;;;;;5.00;4.00;;;;;9.44;100.00;99123.66;6136457;28;96325;-53
2024/01/27 01:16:34;;;;;;;;;3.50;3.00;;;;;9.45;100.00;99122.63;6138045;28;96233;-53
2024/01/27 01:19:37;;;;;;;;;3.00;3.00;;;;;9.42;100.00;99131.97;6132939;28;96304;-52
2024/01/27 01:22:40;;;;;;;;;2.00;2.00;;;;;9.16;100.00;99148.09;6136078;28;98177;-54
2024/01/27 01:25:45;;;;;;;;;3.00;3.00;;;;;9.16;100.00;99139.19;6132169;28;96274;-53
2024/01/27 01:28:48;;;;;;;;;3.00;2.00;;;;;9.05;100.00;99151.38;6105332;28;97066;-58
2024/01/27 01:31:51;;;;;;;;;3.00;3.00;;;;;9.01;100.00;99153.66;6110518;28;96559;-57
2024/01/27 01:34:54;;;;;;;;;6.40;5.40;;;;;9.16;100.00;99148.09;6112391;28;96420;-57
2024/01/27 01:37:57;;;;;;;;;4.00;4.00;;;;;9.01;100.00;99160.91;6115245;28;96662;-58
2024/01/27 01:41:02;;;;;;;;;4.00;3.00;;;;;9.01;100.00;99158.22;6111331;28;97768;-58
2024/01/27 01:44:05;;;;;;;;;3.00;3.00;;;;;9.03;100.00;99164.22;6110515;28;97197;-57
2024/01/27 01:47:09;;;;;;;;;3.00;3.00;;;;;9.10;100.00;99173.94;6114474;28;96606;-58
2024/01/27 01:50:12;;;;;;;;;2.00;2.00;;;;;9.12;100.00;99165.69;6115080;28;96213;-58
2024/01/27 01:53:16;;;;;;;;;3.00;3.00;;;;;9.09;100.00;99171.44;6115188;28;96551;-58
2024/01/27 01:56:20;;;;;;;;;3.00;3.00;;;;;9.08;100.00;99165.28;6111384;28;96236;-57
2024/01/27 01:59:23;;;;;;;;;3.00;3.00;;;;;9.14;100.00;99195.88;6115022;28;96505;-56
2024/01/27 02:02:26;;;;;;;;;3.00;3.00;;;;;9.14;100.00;99180.56;6134140;22;96365;-54
2024/01/27 02:05:30;;;;;;;;;2.00;1.20;;;;;9.18;100.00;99189.09;6131393;28;96340;-54
2024/01/27 02:08:33;;;;;;;;;3.60;3.60;;;;;9.15;100.00;99189.47;6132165;28;96457;-54
2024/01/27 02:11:37;;;;;;;;;2.00;2.00;;;;;9.26;100.00;99180.81;6133650;28;96250;-54
2024/01/27 02:14:40;;;;;;;;;3.00;3.00;;;;;9.25;100.00;99189.06;6140120;28;96280;-54
2024/01/27 02:17:43;;;;;;;;;4.00;3.00;;;;;9.26;100.00;99185.34;6135640;28;96854;-54
2024/01/27 02:20:47;;;;;;;;;4.60;4.40;;;;;9.25;100.00;99183.69;6138957;28;96515;-53
2024/01/27 02:23:50;;;;;;;;;2.20;2.20;;;;;9.21;100.00;99183.28;6137123;28;96263;-54
2024/01/27 02:26:54;;;;;;;;;3.00;3.00;;;;;9.16;100.00;99183.06;6123687;28;97501;-54
2024/01/27 02:29:58;;;;;;;;;4.00;3.20;;;;;8.94;100.00;99149.31;6132448;28;96363;-54
2024/01/27 02:33:01;;;;;;;;;2.00;2.00;;;;;9.09;100.00;99188.41;6130757;28;96943;-54
2024/01/27 02:36:05;;;;;;;;;8.00;6.00;;;;;8.94;100.00;99185.09;6127030;28;96548;-54
2024/01/27 02:39:08;;;;;;;;;3.00;3.00;;;;;8.85;100.00;99188.16;6137053;28;96329;-54
2024/01/27 02:42:12;;;;;;;;;5.20;5.00;;;;;8.79;100.00;99194.38;6130265;28;96793;-54
2024/01/27 02:45:16;;;;;;;;;4.00;3.75;;;;;8.75;100.00;99195.81;6135276;28;97442;-54
2024/01/27 02:48:19;;;;;;;;;3.00;3.00;;;;;8.73;100.00;99200.56;6131117;28;96742;-54
2024/01/27 02:51:22;;;;;;;;;6.00;5.00;;;;;8.84;100.00;99200.81;6136426;28;96399;-54
2024/01/27 02:54:27;;;;;;;;;3.60;3.60;;;;;8.51;100.00;99175.66;6132609;28;96474;-54
2024/01/27 02:57:31;;;;;;;;;5.00;4.00;;;;;8.69;100.00;99195.59;6125137;28;96349;-54
2024/01/27 03:00:35;;;;;;;;;4.00;3.00;;;;;8.49;100.00;99201.94;6133404;28;96348;-54
2024/01/27 03:03:38;;;;;;;;;4.33;4.33;;;;;8.58;100.00;99201.53;6133781;28;96732;-54
2024/01/27 03:06:41;;;;;;;;;4.60;4.00;;;;;8.55;100.00;99207.31;6117855;28;96830;-54
2024/01/27 03:09:45;;;;;;;;;2.80;2.80;;;;;8.55;100.00;99215.38;6133935;28;96362;-54
2024/01/27 03:12:49;;;;;;;;;4.00;4.00;;;;;8.60;100.00;99225.53;6131972;28;96303;-54
2024/01/27 03:15:52;;;;;;;;;5.40;4.00;;;;;8.63;100.00;99225.97;6129095;28;96308;-54
2024/01/27 03:18:55;;;;;;;;;3.80;3.00;;;;;8.65;100.00;99231.94;6133142;28;97335;-54
2024/01/27 03:21:59;;;;;;;;;4.00;4.00;;;;;8.58;100.00;99223.03;6134685;28;96709;-54
2024/01/27 03:25:02;;;;;;;;;4.40;4.40;;;;;8.68;100.00;99239.63;6132350;28;96288;-54
2024/01/27 03:28:07;;;;;;;;;4.00;4.00;;;;;8.72;100.00;99247.28;6135229;28;97533;-54
2024/01/27 03:31:10;;;;;;;;;7.00;5.00;;;;;8.85;100.00;99250.00;6134281;28;96361;-54
2024/01/27 03:34:14;;;;;;;;;4.00;4.00;;;;;8.88;100.00;99255.81;6130575;28;97073;-54
2024/01/27 03:37:17;;;;;;;;;5.00;4.00;;;;;8.87;100.00;99270.28;6129493;28;96494;-54
2024/01/27 03:40:20;;;;;;;;;5.00;5.00;;;;;8.85;100.00;99258.91;6114220;28;98516;-54
2024/01/27 03:43:25;;;;;;;;;4.75;4.00;;;;;8.89;100.00;99262.88;6128001;28;96610;-54
2024/01/27 03:46:28;;;;;;;;;5.50;5.00;;;;;8.70;100.00;99237.56;6130911;28;96529;-54
2024/01/27 03:49:31;;;;;;;;;5.40;5.00;;;;;8.81;100.00;99254.97;6134097;28;96293;-55
2024/01/27 03:52:34;;;;;;;;;3.00;3.00;;;;;8.77;100.00;99259.09;6127299;28;96274;-54
2024/01/27 03:55:38;;;;;;;;;6.00;5.00;;;;;8.81;100.00;99246.06;6129982;28;96468;-54
2024/01/27 03:58:42;;;;;;;;;3.00;3.00;;;;;8.75;100.00;99254.97;6129790;28;96388;-54
2024/01/27 04:01:46;;;;;;;;;3.40;3.00;;;;;8.58;100.00;99235.66;6127349;28;96567;-54
2024/01/27 04:04:49;;;;;;;;;4.00;3.40;;;;;8.70;100.00;99264.44;6129217;28;96343;-54
2024/01/27 04:07:52;;;;;;;;;4.00;4.00;;;;;8.82;100.00;99277.31;6133478;28;96516;-54
2024/01/27 04:10:55;;;;;;;;;3.00;3.00;;;;;8.83;100.00;99281.66;6134615;28;96305;-54
2024/01/27 04:14:01;;;;;;;;;5.00;4.00;;;;;8.80;100.00;99292.78;6126911;28;96403;-54
2024/01/27 04:17:05;;;;;;;;;5.75;5.00;;;;;8.86;100.00;99303.59;6128923;28;97099;-54
2024/01/27 04:20:09;;;;;;;;;3.00;3.00;;;;;8.94;100.00;99305.28;6131464;28;96465;-54
2024/01/27 04:23:13;;;;;;;;;6.00;5.00;;;;;8.82;100.00;99280.81;6131848;28;96626;-54
2024/01/27 04:26:17;;;;;;;;;3.80;3.80;;;;;8.65;100.00;99288.38;6135835;28;96574;-55
2024/01/27 04:29:23;;;;;;;;;4.50;4.00;;;;;8.61;100.00;99297.06;6138137;28;96558;-54
2024/01/27 04:32:26;;;;;;;;;3.80;3.20;;;;;8.67;100.00;99307.84;6132766;28;96362;-54
2024/01/27 04:35:29;;;;;;;;;4.00;3.40;;;;;8.76;100.00;99318.41;6136444;28;96558;-54
2024/01/27 04:38:32;;;;;;;;;6.00;5.50;;;;;8.80;100.00;99317.81;6138206;28;96603;-54
2024/01/27 04:41:35;;;;;;;;;5.50;5.00;;;;;8.79;100.00;99332.31;6129547;28;96269;-54
2024/01/27 04:44:42;;;;;;;;;3.60;3.00;;;;;8.64;100.00;99323.56;6135620;28;96687;-53
2024/01/27 04:47:45;;;;;;;;;4.60;4.60;;;;;8.62;100.00;99326.44;6139351;28;96307;-53
2024/01/27 04:50:48;;;;;;;;;5.00;5.00;;;;;8.59;100.00;99328.69;6120942;28;97112;-53
2024/01/27 04:53:51;;;;;;;;;3.00;3.00;;;;;8.50;100.00;99324.50;6139036;28;96287;-54
2024/01/27 04:56:55;;;;;;;;;3.80;3.00;;;;;8.38;100.00;99324.22;6140209;28;96341;-54
2024/01/27 04:59:59;;;;;;;;;4.00;4.00;;;;;8.40;100.00;99316.81;6139947;28;97496;-54
2024/01/27 05:03:04;;;;;;;;;3.00;3.00;;;;;8.41;100.00;99323.81;6139081;28;96430;-54
2024/01/27 05:06:09;;;;;;;;;3.00;3.00;;;;;8.17;100.00;99321.53;6139739;28;96616;-53
2024/01/27 05:09:13;;;;;;;;;3.00;3.00;;;;;8.28;100.00;99324.53;6140292;28;96426;-54
2024/01/27 05:12:16;;;;;;;;;4.00;4.00;;;;;8.30;100.00;99323.53;6139880;28;96261;-54
2024/01/27 05:15:20;;;;;;;;;3.00;2.00;;;;;8.40;100.00;99329.41;6133531;28;96377;-53
2024/01/27 05:18:23;;;;;;;;;5.00;4.00;;;;;8.26;100.00;99342.69;6142036;28;96353;-53
2024/01/27 05:21:27;;;;;;;;;4.00;3.00;;;;;8.33;100.00;99347.31;6142658;28;96308;-56
2024/01/27 05:24:30;;;;;;;;;4.00;3.00;;;;;8.26;100.00;99317.69;6143802;28;97357;-54
2024/01/27 05:27:33;;;;;;;;;5.00;5.00;;;;;8.38;100.00;99337.66;6141614;28;96441;-54
2024/01/27 05:30:38;;;;;;;;;3.40;3.40;;;;;8.38;100.00;99352.94;6133733;28;96370;-54
2024/01/27 05:33:41;;;;;;;;;4.60;4.60;;;;;8.36;100.00;99350.44;6139830;28;96282;-54
2024/01/27 05:36:45;;;;;;;;;5.00;4.00;;;;;8.45;100.00;99362.72;6144447;28;96604;-53
2024/01/27 05:39:48;;;;;;;;;2.20;2.20;;;;;8.40;100.00;99353.59;6142869;28;96375;-54
2024/01/27 05:42:51;;;;;;;;;4.25;3.00;;;;;8.31;100.00;99352.06;6143794;28;96290;-54
2024/01/27 05:45:55;;;;;;;;;5.00;5.00;;;;;8.39;100.00;99352.75;6143419;28;96234;-53
2024/01/27 05:49:02;;;;;;;;;3.00;2.00;;;;;8.37;100.00;99349.41;6143717;28;97015;-54
2024/01/27 05:52:06;;;;;;;;;3.00;3.00;;;;;8.49;100.00;99353.22;6143519;28;96315;-54
2024/01/27 05:55:11;;;;;;;;;4.00;4.00;;;;;8.51;100.00;99353.00;6142676;28;97055;-54
2024/01/27 05:58:15;;;;;;;;;8.40;6.40;;;;;8.45;100.00;99353.81;6143587;28;96305;-54
2024/01/27 06:01:20;;;;;;;;;3.00;3.00;;;;;8.39;100.00;99350.06;6116494;28;97721;-54
2024/01/27 06:04:23;;;;;;;;;4.00;3.00;;;;;8.56;100.00;99350.56;6138683;28;96276;-53
2024/01/27 06:07:26;;;;;;;;;3.00;3.00;;;;;8.47;100.00;99354.44;6143207;28;96304;-54
2024/01/27 06:10:30;;;;;;;;;4.00;3.00;;;;;8.46;100.00;99353.59;6142407;28;96631;-55
2024/01/27 06:13:34;;;;;;;;;3.00;3.00;;;;;8.55;100.00;99357.78;6142120;28;96983;-54
2024/01/27 06:16:39;;;;;;;;;3.00;3.00;;;;;8.51;100.00;99351.16;6139909;28;96505;-54
2024/01/27 06:19:42;;;;;;;;;4.00;4.00;;;;;8.48;100.00;99358.78;6141146;28;97084;-54
2024/01/27 06:22:45;;;;;;;;;5.00;3.00;;;;;8.44;100.00;99369.13;6139420;28;96408;-53
2024/01/27 06:25:48;;;;;;;;;2.00;2.00;;;;;8.32;100.00;99364.47;6124662;28;96379;-54
2024/01/27 06:28:51;;;;;;;;;2.00;2.00;;;;;8.25;100.00;99372.47;6140563;28;96634;-54
2024/01/27 06:31:56;;;;;;;;;4.60;4.60;;;;;8.20;100.00;99373.03;6141422;28;96935;-54
2024/01/27 06:34:59;;;;;;;;;3.25;3.00;;;;;8.23;100.00;99382.56;6140980;28;96298;-54
2024/01/27 06:38:02;;;;;;;;;4.00;4.00;;;;;8.13;100.00;99385.56;6123301;28;96322;-54
2024/01/27 06:41:05;;;;;;;;;3.50;3.00;;;;;8.26;100.00;99369.56;6140546;28;96882;-54
2024/01/27 06:44:08;;;;;;;;;3.60;3.60;;;;;8.29;100.00;99387.16;6139867;28;96301;-54
2024/01/27 06:47:13;;;;;;;;;4.00;3.80;;;;;8.30;100.00;99371.91;6140235;28;97017;-54
2024/01/27 06:50:16;;;;;;;;;3.00;2.25;;;;;8.31;100.00;99400.44;6139860;28;96395;-54
2024/01/27 06:53:19;;;;;;;;;2.80;2.00;;;;;8.32;100.00;99402.06;6140790;28;96300;-54
2024/01/27 06:56:22;;;;;;;;;3.60;3.00;;;;;8.43;100.00;99398.84;6140100;28;96359;-54
2024/01/27 06:59:25;;;;;;;;;3.00;3.00;;;;;8.16;100.00;99393.22;6140705;28;96235;-54
2024/01/27 07:02:30;;;;;;;;;4.00;2.60;;;;;8.19;100.00;99406.28;6137885;28;96650;-54
2024/01/27 07:05:38;;;;;;;;;3.00;3.00;;;;;8.19;100.00;99421.56;6140469;28;96420;-55
2024/01/27 07:08:41;;;;;;;;;3.00;2.00;;;;;8.06;100.00;99405.34;6138791;28;96570;-55
2024/01/27 07:11:44;;;;;;;;;3.00;2.67;;;;;8.28;100.00;99423.09;6139332;28;97307;-55
2024/01/27 07:14:47;;;;;;;;;1.60;1.00;;;;;8.12;100.00;99417.97;6129090;28;96779;-55
2024/01/27 07:17:53;;;;;;;;;2.00;2.00;;;;;8.17;100.00;99411.00;6120488;28;96459;-55
2024/01/27 07:20:59;;;;;;;;;3.00;2.60;;;;;8.14;100.00;99411.41;6137626;28;96385;-55
2024/01/27 07:24:03;;;;;;;;;3.00;2.00;;;;;8.37;100.00;99413.06;6139631;28;96378;-54
2024/01/27 07:27:06;;;;;;;;;4.20;3.00;;;;;8.30;100.00;99407.66;6138665;28;96346;-55
2024/01/27 07:30:11;;;;;;;;;2.00;2.00;;;;;8.40;100.00;99404.63;6133912;28;96601;-55
2024/01/27 07:33:15;;;;;;;;;2.00;2.00;;;;;8.56;100.00;99417.75;6137140;28;96968;-55
2024/01/27 07:36:19;;;;;;;;;3.60;3.00;;;;;8.54;100.00;99417.97;6122306;28;96199;-55
2024/01/27 07:39:22;;;;;;;;;5.00;3.00;;;;;8.57;100.00;99411.34;6131042;28;97054;-55
2024/01/27 07:42:25;;;;;;;;;3.00;3.00;;;;;8.70;100.00;99419.50;6132583;28;96536;-55
2024/01/27 07:45:28;;;;;;;;;2.00;1.00;;;;;8.65;100.00;99413.88;6116955;28;96321;-55
2024/01/27 07:48:33;;;;;;;;;4.40;2.00;;;;;8.68;100.00;99416.19;6128784;28;96533;-54
2024/01/27 07:51:36;;;;;;;;;4.60;4.40;;;;;8.51;100.00;99410.28;6138384;28;96559;-55
2024/01/27 07:54:40;;;;;;;;;3.50;2.75;;;;;8.58;100.00;99429.97;6138474;28;97466;-55
2024/01/27 07:57:43;;;;;;;;;4.00;4.00;;;;;8.62;100.00;99412.44;6139364;28;96712;-55
2024/01/27 08:00:46;;;;;;;;;2.50;2.50;;;;;8.68;100.00;99411.66;6140848;28;96916;-55
2024/01/27 08:03:51;;;;;;;;;3.67;3.67;;;;;8.42;100.00;99397.19;6138469;28;97096;-55
2024/01/27 08:06:54;;;;;;;;;3.00;3.00;;;;;8.48;100.00;99407.16;6135266;28;96385;-55
2024/01/27 08:09:58;;;;;;;;;2.60;2.00;;;;;8.68;100.00;99413.50;6136900;28;96478;-55
2024/01/27 08:13:01;;;;;;;;;2.00;1.00;;;;;8.69;100.00;99410.63;6138383;28;96528;-55
2024/01/27 08:16:05;;;;;;;;;3.00;3.00;;;;;8.83;100.00;99411.53;6136445;28;96721;-55
2024/01/27 08:19:09;;;;;;;;;2.40;2.00;;;;;8.59;100.00;99402.09;6128565;28;96374;-55
2024/01/27 08:22:13;;;;;;;;;3.00;3.00;;;;;8.70;100.00;99409.59;6131497;28;96696;-55
2024/01/27 08:25:16;;;;;;;;;2.00;2.00;;;;;8.75;100.00;99422.44;6128490;28;97365;-55
2024/01/27 08:28:19;;;;;;;;;4.00;4.00;;;;;8.81;100.00;99416.28;6132729;28;96309;-56
2024/01/27 08:31:22;;;;;;;;;4.00;2.00;;;;;8.84;100.00;99417.75;6126869;28;96758;-55
2024/01/27 08:34:27;;;;;;;;;3.00;3.00;;;;;8.89;100.00;99423.38;6127364;28;96844;-55
2024/01/27 08:37:32;;;;;;;;;5.00;3.00;;;;;8.79;100.00;99430.97;6136432;28;96649;-54
2024/01/27 08:40:35;;;;;;;;;3.00;3.00;;;;;8.68;100.00;99430.47;6134642;28;96616;-55
2024/01/27 08:43:39;;;;;;;;;3.60;3.00;;;;;8.67;100.00;99444.09;6133536;28;97221;-55
2024/01/27 08:46:42;;;;;;;;;2.00;2.00;;;;;8.78;100.00;99438.19;6137148;28;97535;-55
2024/01/27 08:49:46;;;;;;;;;5.00;5.00;;;;;8.69;100.00;99447.44;6136923;28;96278;-54
2024/01/27 08:52:49;;;;;;;;;3.00;3.00;;;;;8.68;100.00;99435.00;6121255;28;96335;-55
2024/01/27 08:55:52;;;;;;;;;4.75;4.00;;;;;8.78;100.00;99429.28;6137937;28;96300;-55
2024/01/27 08:58:56;;;;;;;;;4.00;3.00;;;;;8.72;100.00;99447.03;6140107;28;96327;-55
2024/01/27 09:01:59;;;;;;;;;4.00;4.00;;;;;8.68;100.00;99430.47;6139994;28;96434;-55
2024/01/27 09:05:04;;;;;;;;;4.00;4.00;;;;;8.85;100.00;99432.84;6141437;28;99182;-56
2024/01/27 09:08:07;;;;;;;;;3.00;3.00;;;;;8.73;100.00;99437.13;6140584;28;96615;-56
2024/01/27 09:11:11;;;;;;;;;4.00;4.00;;;;;8.82;100.00;99441.31;6156255;28;96242;-56
2024/01/27 09:14:14;;;;;;;;;3.00;2.60;;;;;8.85;100.00;99441.72;6153314;28;96664;-56
2024/01/27 09:17:17;;;;;;;;;3.60;3.00;;;;;8.81;100.00;99439.63;6160401;28;96285;-57
2024/01/27 09:20:22;;;;;;;;;3.00;3.00;;;;;8.80;100.00;99456.78;6172643;28;96292;-56
2024/01/27 09:23:25;;;;;;;;;5.00;4.00;;;;;8.77;100.00;99459.88;6172148;28;96329;-57
2024/01/27 09:26:28;;;;;;;;;5.25;4.50;;;;;8.60;100.00;99457.47;6170774;28;96311;-57
2024/01/27 09:30:04;;;;;;;;;4.67;4.00;;;;;8.49;100.00;99481.38;7524103;22;98271;31
2024/01/27 09:33:08;;;;;;;;;3.00;3.00;;;;;8.44;100.00;99476.59;6106892;28;98387;-57
2024/01/27 09:36:12;;;;;;;;;4.00;4.00;;;;;8.32;100.00;99488.03;6100700;28;96479;-56
2024/01/27 09:39:16;;;;;;;;;4.40;3.00;;;;;8.27;100.00;99481.34;6096843;28;96507;-56
2024/01/27 09:42:22;;;;;;;;;3.00;3.00;;;;;8.39;100.00;99489.78;6093941;28;96733;-56
2024/01/27 09:45:25;;;;;;;;;3.40;3.00;;;;;8.27;100.00;99500.16;6099659;28;97393;-56
2024/01/27 09:48:30;;;;;;;;;4.00;4.00;;;;;8.28;100.00;99498.31;6108910;28;96351;-56
2024/01/27 09:51:35;;;;;;;;;4.40;4.00;;;;;8.34;100.00;99494.88;6105582;28;96725;-56
2024/01/27 09:54:38;;;;;;;;;5.40;3.40;;;;;8.30;100.00;99500.84;6101011;28;96328;-56
2024/01/27 09:57:42;;;;;;;;;5.00;4.00;;;;;8.16;100.00;99462.25;6091393;28;96531;-56
2024/01/27 10:00:46;;;;;;;;;7.00;6.00;;;;;8.18;100.00;99482.50;6091260;28;96328;-56
2024/01/27 10:03:50;;;;;;;;;4.00;4.00;;;;;8.11;100.00;99481.59;6090905;28;98663;-56
2024/01/27 10:06:58;;;;;;;;;5.00;4.00;;;;;8.08;100.00;99489.22;6093913;28;96380;-56
2024/01/27 10:10:01;;;;;;;;;7.00;6.00;;;;;8.08;100.00;99489.22;6087761;28;96519;-56
2024/01/27 10:13:06;;;;;;;;;4.00;4.00;;;;;7.98;100.00;99486.00;6082644;28;97108;-56
2024/01/27 10:16:12;;;;;;;;;4.00;3.40;;;;;7.90;100.00;99499.56;6080361;28;96906;-56
2024/01/27 10:19:17;;;;;;;;;3.50;3.25;;;;;7.81;100.00;99490.81;6092654;28;96937;-54
2024/01/27 10:22:22;;;;;;;;;6.00;5.00;;;;;7.80;100.00;99489.97;6087295;28;96504;-53
2024/01/27 10:25:25;;;;;;;;;4.80;4.00;;;;;7.74;100.00;99482.66;6088965;28;96404;-53
2024/01/27 10:28:28;;;;;;;;;5.00;5.00;;;;;7.64;100.00;99497.41;6075256;28;96832;-53
2024/01/27 10:31:35;;;;;;;;;6.00;5.50;;;;;7.43;100.00;99489.31;6107890;28;96688;-53
2024/01/27 10:34:39;;;;;;;;;4.00;3.00;;;;;7.48;100.00;99490.38;6108022;28;96394;-54
2024/01/27 10:37:44;;;;;;;;;4.60;3.00;;;;;7.55;100.00;99494.00;6094723;28;96774;-55
2024/01/27 10:40:48;;;;;;;;;5.00;4.00;;;;;7.44;100.00;99483.72;6085000;28;97045;-54
2024/01/27 10:43:52;;;;;;;;;3.75;3.75;;;;;7.41;100.00;99489.47;6087217;28;96241;-53
2024/01/27 10:47:02;;;;;;;;;5.00;5.00;;;;;7.34;100.00;99475.13;6084713;28;96347;-54
2024/01/27 10:50:09;;;;;;;;;7.00;7.00;;;;;7.35;100.00;99476.81;6095582;28;96273;-53
2024/01/27 10:53:23;;;;;;;;;7.00;6.00;;;;;7.38;100.00;99495.19;6089615;28;96350;-53
2024/01/27 10:56:28;;;;;;;;;7.00;5.00;;;;;7.47;100.00;99495.97;6104555;28;96334;-55
2024/01/27 10:59:32;;;;;;;;;9.00;7.00;;;;;7.41;100.00;99494.84;6087900;28;96541;-54
2024/01/27 11:02:36;;;;;;;;;6.00;6.00;;;;;7.32;100.00;99483.41;6093705;28;96379;-54
2024/01/27 11:05:44;;;;;;;;;6.00;5.00;;;;;7.30;100.00;99489.94;6083929;28;96475;-54
2024/01/27 11:08:50;;;;;;;;;5.25;5.00;;;;;7.26;100.00;99489.50;6095974;28;96426;-54
2024/01/27 11:11:54;;;;;;;;;5.00;4.00;;;;;7.17;100.00;99490.59;6103557;28;98512;-54
2024/01/27 11:14:58;;;;;;;;;6.80;4.80;;;;;7.35;100.00;99491.06;6090557;28;97135;-54
2024/01/27 11:18:03;;;;;;;;;7.00;6.00;;;;;7.40;100.00;99488.66;6092919;28;96944;-54
2024/01/27 11:21:07;;;;;;;;;6.00;5.25;;;;;7.61;100.00;99501.31;6094184;28;96351;-54
2024/01/27 11:24:16;;;;;;;;;8.00;7.00;;;;;7.63;100.00;99491.19;6093094;28;96294;-54
2024/01/27 11:27:19;;;;;;;;;7.00;6.00;;;;;7.69;100.00;99506.56;6097383;28;96296;-54
2024/01/27 11:30:28;;;;;;;;;5.20;5.20;;;;;7.72;100.00;99505.34;6091373;28;96419;-54
2024/01/27 11:33:32;;;;;;;;;7.00;7.00;;;;;7.72;100.00;99506.16;6068857;28;96435;-54
2024/01/27 11:36:35;;;;;;;;;8.00;6.00;;;;;7.80;100.00;99505.25;6090791;28;96436;-54
2024/01/27 11:39:39;;;;;;;;;7.00;6.00;;;;;7.87;100.00;99502.63;6109734;28;96676;-54
2024/01/27 11:42:43;;;;;;;;;5.60;5.20;;;;;7.80;100.00;99514.13;6097691;28;96701;-54
2024/01/27 11:45:56;;;;;;;;;8.40;8.00;;;;;7.93;100.00;99499.16;6101264;28;96653;-54
2024/01/27 11:48:59;;;;;;;;;7.60;6.00;;;;;7.96;100.00;99507.69;6103744;28;96255;-53
2024/01/27 11:52:03;;;;;;;;;7.00;7.00;;;;;7.92;100.00;99509.06;6091638;28;96622;-54
2024/01/27 11:55:08;;;;;;;;;9.00;8.80;;;;;7.93;100.00;99505.38;6107309;28;97580;-54
2024/01/27 11:58:11;;;;;;;;;8.00;7.25;;;;;7.74;100.00;99514.88;6108509;28;96348;-54
2024/01/27 12:01:14;;;;;;;;;10.00;9.00;;;;;7.63;100.00;99509.97;6095169;28;96289;-54
2024/01/27 12:04:19;;;;;;;;;7.40;7.40;;;;;7.65;100.00;99510.63;6074361;28;96651;-54
2024/01/27 12:07:23;;;;;;;;;8.00;7.00;;;;;7.71;100.00;99511.75;6091850;28;96195;-54
2024/01/27 12:10:27;;;;;;;;;7.20;6.60;;;;;7.59;100.00;99521.28;6072406;28;96297;-54
2024/01/27 12:13:30;;;;;;;;;8.00;7.00;;;;;7.52;100.00;99512.31;6084934;28;96360;-54
2024/01/27 12:16:34;;;;;;;;;4.80;4.20;;;;;7.52;100.00;99512.31;6075464;28;97160;-54
2024/01/27 12:19:37;;;;;;;;;6.00;6.00;;;;;7.58;100.00;99516.91;6090931;28;96371;-54
2024/01/27 12:22:40;;;;;;;;;9.00;7.50;;;;;7.60;100.00;99526.47;6090891;28;96119;-54
2024/01/27 12:25:53;;;;;;;;;10.40;9.40;;;;;7.60;100.00;99526.47;6095804;28;96800;-54
2024/01/27 12:28:57;;;;;;;;;8.00;8.00;;;;;7.70;100.00;99531.53;6079767;28;98765;-54
2024/01/27 12:32:01;;;;;;;;;9.00;8.00;;;;;7.76;100.00;99537.00;6065016;28;96653;-54
2024/01/27 12:35:06;;;;;;;;;8.60;8.60;;;;;7.89;100.00;99549.75;6078268;28;98514;-55
2024/01/27 12:38:10;;;;;;;;;8.00;7.00;;;;;7.86;100.00;99534.03;6075953;28;96321;-56
2024/01/27 12:41:15;;;;;;;;;10.00;9.00;;;;;7.94;100.00;99550.00;6091746;28;96644;-56
2024/01/27 12:44:18;;;;;;;;;7.50;7.50;;;;;7.80;100.00;99545.50;6084493;28;96549;-56
2024/01/27 12:47:21;;;;;;;;;10.00;8.00;;;;;7.91;100.00;99552.25;6081997;28;96702;-56
2024/01/27 12:50:24;;;;;;;;;7.75;6.00;;;;;7.98;100.00;99545.91;6087323;28;96809;-56
2024/01/27 12:53:27;;;;;;;;;8.00;7.60;;;;;7.96;100.00;99565.94;6087771;28;96288;-56
2024/01/27 12:56:34;;;;;;;;;7.60;7.60;;;;;7.93;100.00;99571.66;6094109;28;97649;-56
2024/01/27 12:59:37;;;;;;;;;11.60;10.00;;;;;7.93;100.00;99569.81;6087326;28;96363;-56
2024/01/27 13:02:41;;;;;;;;;8.00;7.00;;;;;7.83;100.00;99575.47;6085169;28;96332;-56
2024/01/27 13:05:44;;;;;;;;;8.00;7.20;;;;;7.94;100.00;99570.66;6098889;28;96817;-56
2024/01/27 13:08:47;;;;;;;;;7.50;6.00;;;;;7.93;100.00;99585.94;6088951;28;97059;-56
2024/01/27 13:11:52;;;;;;;;;8.60;8.00;;;;;7.75;100.00;99567.53;6104044;28;97308;-56
2024/01/27 13:14:55;;;;;;;;;7.40;7.00;;;;;7.83;100.00;99585.38;6088294;28;96181;-56
2024/01/27 13:17:58;;;;;;;;;8.00;7.25;;;;;7.82;100.00;99591.75;6088790;28;96458;-56
2024/01/27 13:21:03;;;;;;;;;8.00;6.00;;;;;7.80;100.00;99591.13;6087065;28;96815;-56
2024/01/27 13:24:08;;;;;;;;;8.00;7.00;;;;;7.58;100.00;99582.16;6067433;28;96458;-56
2024/01/27 13:27:13;;;;;;;;;9.20;9.00;;;;;7.77;100.00;99596.88;6086628;28;97461;-56
2024/01/27 13:30:18;;;;;;;;;6.50;6.00;;;;;7.75;100.00;99606.97;6076383;28;97147;-56
2024/01/27 13:33:22;;;;;;;;;7.80;5.80;;;;;7.77;100.00;99613.81;6064616;28;97165;-56
2024/01/27 13:36:30;;;;;;;;;9.40;8.00;;;;;7.83;100.00;99621.13;6083287;28;96391;-56
2024/01/27 13:39:34;;;;;;;;;10.40;8.00;;;;;7.79;100.00;99621.69;6083318;28;96268;-56
2024/01/27 13:42:40;;;;;;;;;9.00;8.00;;;;;7.76;100.00;99630.94;6091396;28;97286;-56
2024/01/27 13:45:43;;;;;;;;;8.00;7.00;;;;;7.83;100.00;99621.13;6082621;28;96625;-56
2024/01/27 13:48:46;;;;;;;;;6.00;6.00;;;;;7.89;100.00;99635.66;6079887;28;96709;-54
2024/01/27 13:51:50;;;;;;;;;9.80;8.00;;;;;7.89;100.00;99637.50;6082988;28;96631;-54
2024/01/27 13:54:53;;;;;;;;;10.00;9.00;;;;;7.91;100.00;99640.84;6091122;28;96654;-54
2024/01/27 13:57:57;;;;;;;;;8.60;8.00;;;;;7.86;100.00;99640.56;6091451;28;96343;-54
2024/01/27 14:01:00;;;;;;;;;10.00;8.75;;;;;7.86;100.00;99644.09;6101741;28;96624;-55
2024/01/27 14:04:05;;;;;;;;;10.00;9.00;;;;;7.98;100.00;99647.94;6104026;28;96434;-54
2024/01/27 14:07:09;;;;;;;;;8.50;8.00;;;;;8.09;100.00;99649.34;6107678;28;96539;-53
2024/01/27 14:10:13;;;;;;;;;11.00;9.20;;;;;8.05;100.00;99653.41;6089248;28;96224;-54
2024/01/27 14:13:17;;;;;;;;;12.00;9.00;;;;;8.13;100.00;99661.38;6089651;28;96683;-54
2024/01/27 14:16:21;;;;;;;;;9.00;8.00;;;;;8.13;100.00;99664.06;6102634;28;96831;-54
2024/01/27 14:19:24;;;;;;;;;8.00;7.00;;;;;8.15;100.00;99675.44;6117318;28;96426;-54
2024/01/27 14:22:28;;;;;;;;;6.25;6.25;;;;;8.07;100.00;99679.06;6116968;28;96395;-54
2024/01/27 14:25:31;;;;;;;;;11.00;9.00;;;;;8.17;100.00;99676.09;6092994;28;96405;-54
2024/01/27 14:28:36;;;;;;;;;9.40;9.00;;;;;8.21;100.00;99685.44;6069581;28;96574;-54